Time;durP1;ratioP1;P1;durP2;ratioP2;P2;SDS_P1;SDS_P2;PMS_P1;PMS_P2;Temp;Humidity;BMP_temperature;BMP_pressure;BME280_temperature;BME280_humidity;BME280_pressure;Samples;Min_cycle;Max_cycle;Signal;HPM_P1;HPM_P2
2022/01/10 00:02:24;;;;;;;16.35;7.68;;;;;;;1.87;90.66;101026.28;5084015;28;20055;-70
2022/01/10 00:04:50;;;;;;;20.27;7.65;;;;;;;1.74;91.79;101026.47;5096998;28;20023;-68
2022/01/10 00:07:15;;;;;;;18.45;7.30;;;;;;;1.74;91.74;101034.91;5077785;28;20055;-67
2022/01/10 00:09:41;;;;;;;16.48;7.32;;;;;;;1.75;91.91;101033.97;5078461;28;20023;-66
2022/01/10 00:12:07;;;;;;;18.17;6.97;;;;;;;1.86;92.28;101039.97;5079063;28;20032;-66
2022/01/10 00:14:32;;;;;;;24.58;7.70;;;;;;;1.80;92.27;101041.25;5098446;28;20024;-67
2022/01/10 00:16:57;;;;;;;23.02;7.72;;;;;;;1.96;92.06;101039.09;5097393;28;20467;-68
2022/01/10 00:19:23;;;;;;;28.88;8.20;;;;;;;1.90;92.22;101047.25;5096814;28;20027;-67
2022/01/10 00:21:49;;;;;;;26.63;7.97;;;;;;;1.73;92.02;101002.72;5078536;28;20020;-67
2022/01/10 00:24:14;;;;;;;23.23;7.25;;;;;;;2.03;91.58;101041.94;5096987;28;20027;-66
2022/01/10 00:26:40;;;;;;;23.20;7.40;;;;;;;1.96;91.49;101048.50;5096431;28;20554;-66
2022/01/10 00:29:05;;;;;;;19.85;7.50;;;;;;;1.80;92.20;101054.81;5096273;28;20023;-67
2022/01/10 00:31:30;;;;;;;18.13;8.00;;;;;;;1.69;92.22;101059.94;5078102;28;20477;-67
2022/01/10 00:33:55;;;;;;;25.02;7.65;;;;;;;1.74;92.57;101055.31;5096010;28;20517;-67
2022/01/10 00:36:21;;;;;;;25.63;7.82;;;;;;;1.82;92.56;101064.91;5077857;28;20089;-68
2022/01/10 00:38:46;;;;;;;21.45;7.18;;;;;;;1.86;92.15;101062.91;5094838;28;20055;-66
2022/01/10 00:41:11;;;;;;;24.58;7.63;;;;;;;1.94;91.87;101063.09;5095823;28;20023;-67
2022/01/10 00:43:41;;;;;;;21.02;7.57;;;;;;;1.93;91.77;101069.13;5095900;28;20099;-66
2022/01/10 00:46:06;;;;;;;24.75;7.82;;;;;;;1.76;91.16;101056.00;5077591;28;20045;-67
2022/01/10 00:48:31;;;;;;;26.20;7.93;;;;;;;1.75;92.07;101077.28;5095625;28;20379;-66
2022/01/10 00:50:57;;;;;;;22.30;7.53;;;;;;;1.66;91.97;101083.13;5095589;28;20546;-66
2022/01/10 00:53:25;;;;;;;19.15;6.75;;;;;;;1.75;92.69;101094.31;5077278;28;20459;-66
2022/01/10 00:55:50;;;;;;;25.15;7.78;;;;;;;1.80;91.70;101099.88;5077236;28;20082;-66
2022/01/10 00:58:16;;;;;;;29.33;7.97;;;;;;;1.75;91.88;101104.53;5077238;28;20390;-66
2022/01/10 01:00:41;;;;;;;28.67;8.95;;;;;;;1.84;92.24;101100.44;5077306;28;20024;-67
2022/01/10 01:03:06;;;;;;;26.00;8.65;;;;;;;1.81;91.55;101101.47;5077263;28;20032;-67
2022/01/10 01:05:34;;;;;;;23.30;9.73;;;;;;;1.68;92.00;101109.31;5077181;28;20443;-67
2022/01/10 01:08:03;;;;;;;25.38;8.77;;;;;;;1.73;92.47;101119.94;5095197;28;20051;-66
2022/01/10 01:16:08;;;;;;;28.48;9.27;;;;;;;1.68;90.94;101123.78;5094614;28;20070;-66
2022/01/10 01:24:02;;;;;;;19.75;7.50;;;;;;;1.67;91.12;101140.81;5095226;28;20441;-67
2022/01/10 01:26:30;;;;;;;20.45;8.07;;;;;;;1.65;90.98;101141.84;5094996;28;20074;-67
2022/01/10 01:28:56;;;;;;;17.35;7.60;;;;;;;1.75;90.99;101142.75;5076707;28;20020;-67
2022/01/10 01:31:22;;;;;;;22.73;7.95;;;;;;;1.71;90.35;101147.28;5095344;28;20031;-67
2022/01/10 01:33:47;;;;;;;20.52;7.78;;;;;;;1.53;90.48;101146.97;5094701;28;20560;-66
2022/01/10 01:36:12;;;;;;;21.65;7.88;;;;;;;1.69;91.11;101159.31;5076655;28;20024;-67
2022/01/10 01:38:39;;;;;;;17.50;8.20;;;;;;;1.71;91.94;101165.13;5094788;28;20063;-67
2022/01/10 01:43:50;;;;;;;21.85;8.15;;;;;;;1.70;92.07;101163.50;5094111;28;20063;-67
2022/01/10 01:46:16;;;;;;;22.17;9.05;;;;;;;1.71;92.02;101175.31;5076310;28;20035;-66
2022/01/10 01:48:42;;;;;;;23.30;8.02;;;;;;;1.51;91.70;101137.84;5094378;28;20512;-67
2022/01/10 01:51:08;;;;;;;24.38;8.75;;;;;;;1.93;91.44;101181.28;5076139;28;20024;-67
2022/01/10 01:53:36;;;;;;;24.25;9.05;;;;;;;2.06;91.27;101183.66;5094370;28;20039;-67
2022/01/10 01:56:06;;;;;;;23.92;8.82;;;;;;;1.90;91.35;101186.59;5075881;28;20093;-67
2022/01/10 01:58:32;;;;;;;23.17;9.27;;;;;;;1.88;91.80;101196.13;5094162;28;20067;-67
2022/01/10 02:00:58;;;;;;;21.20;9.27;;;;;;;1.93;92.08;101194.03;5094324;28;20099;-67
2022/01/10 02:03:23;;;;;;;26.48;9.35;;;;;;;1.91;91.50;101194.13;5094086;28;20115;-66
2022/01/10 02:05:49;;;;;;;25.58;9.75;;;;;;;1.65;92.07;101198.72;5094437;28;20052;-67
2022/01/10 02:08:14;;;;;;;26.52;10.05;;;;;;;1.61;92.88;101192.22;5075838;28;20016;-68
2022/01/10 02:10:39;;;;;;;27.77;9.30;;;;;;;1.22;93.24;101171.44;5075952;28;20497;-67
2022/01/10 02:13:05;;;;;;;23.85;9.65;;;;;;;1.47;92.99;101220.53;5094361;28;20024;-67
2022/01/10 02:15:47;;;;;;;21.23;9.25;;;;;;;1.57;93.43;101218.88;5094223;28;20493;-67
2022/01/10 02:18:17;;;;;;;23.00;10.67;;;;;;;1.68;92.69;101226.50;5093958;28;20394;-67
2022/01/10 02:20:43;;;;;;;22.08;8.88;;;;;;;1.73;92.55;101238.91;5094419;28;20731;-67
2022/01/10 02:23:09;;;;;;;23.85;9.32;;;;;;;1.72;92.75;101227.88;5075869;28;20028;-66
2022/01/10 02:25:34;;;;;;;24.75;9.35;;;;;;;1.68;92.02;101223.16;5093885;28;20474;-67
2022/01/10 02:28:00;;;;;;;22.05;9.30;;;;;;;1.80;92.10;101240.84;5093836;28;20024;-67
2022/01/10 02:30:26;;;;;;;21.83;8.82;;;;;;;1.89;92.53;101244.41;5075669;28;20027;-67
2022/01/10 02:32:52;;;;;;;19.98;8.98;;;;;;;1.98;92.45;101245.44;5093464;28;20510;-66
2022/01/10 02:35:20;;;;;;;24.40;9.48;;;;;;;2.03;91.46;101243.34;5093165;28;20105;-66
2022/01/10 02:37:46;;;;;;;19.90;9.40;;;;;;;1.91;92.39;101244.31;5092494;28;20024;-68
2022/01/10 02:40:14;;;;;;;21.55;9.30;;;;;;;1.94;91.75;101252.53;5074844;28;20073;-67
2022/01/10 02:42:40;;;;;;;22.45;9.38;;;;;;;1.92;91.65;101262.03;5075439;28;20024;-67
2022/01/10 02:45:06;;;;;;;25.92;9.13;;;;;;;1.83;92.19;101262.72;5093468;28;20027;-67
2022/01/10 02:47:31;;;;;;;23.80;9.93;;;;;;;1.87;91.39;101263.31;5093532;28;20031;-67
2022/01/10 02:49:57;;;;;;;23.48;9.07;;;;;;;1.75;92.03;101277.78;5093610;28;20124;-67
2022/01/10 02:52:22;;;;;;;25.40;9.32;;;;;;;1.60;92.62;101284.06;5093473;28;20028;-67
2022/01/10 02:54:48;;;;;;;16.73;9.13;;;;;;;1.65;92.23;101275.16;5093519;28;20023;-67
2022/01/10 02:57:13;;;;;;;22.52;9.35;;;;;;;1.68;91.52;101286.84;5093304;28;20051;-67
2022/01/10 02:59:39;;;;;;;22.52;9.25;;;;;;;1.64;91.54;101293.91;5074734;28;20414;-67
2022/01/10 03:02:07;;;;;;;15.10;8.15;;;;;;;1.61;91.31;101291.56;5075611;28;20024;-68
2022/01/10 03:04:32;;;;;;;21.02;9.07;;;;;;;1.44;91.42;101303.06;5098084;28;20358;-67
2022/01/10 03:06:58;;;;;;;22.00;9.80;;;;;;;1.58;91.63;101299.44;5097692;28;20028;-67
2022/01/10 03:09:24;;;;;;;25.15;9.32;;;;;;;1.52;91.58;101298.19;5097483;28;20016;-67
2022/01/10 03:11:50;;;;;;;20.30;8.75;;;;;;;1.42;90.65;101312.53;5097465;28;20054;-67
2022/01/10 03:14:16;;;;;;;18.45;9.15;;;;;;;1.51;91.94;101311.84;5097422;28;20027;-67
2022/01/10 03:16:42;;;;;;;25.67;9.30;;;;;;;1.52;91.58;101310.91;5079085;28;20026;-67
2022/01/10 03:19:08;;;;;;;16.58;9.25;;;;;;;1.52;91.37;101313.47;5097729;28;20107;-66
2022/01/10 03:21:35;;;;;;;26.38;10.20;;;;;;;1.44;91.97;101314.97;5079132;28;20024;-66
2022/01/10 03:24:01;;;;;;;20.15;9.00;;;;;;;1.39;91.52;101322.97;5097309;28;20024;-67
2022/01/10 03:26:27;;;;;;;17.10;8.48;;;;;;;1.27;90.57;101334.06;5078989;28;20028;-67
2022/01/10 03:28:52;;;;;;;18.05;9.18;;;;;;;1.21;91.02;101340.41;5078865;28;20016;-67
2022/01/10 03:31:18;;;;;;;24.38;9.88;;;;;;;1.12;91.31;101336.81;5078893;28;20024;-67
2022/01/10 03:33:44;;;;;;;16.88;9.05;;;;;;;1.20;90.96;101358.34;5078911;28;20107;-67
2022/01/10 03:36:09;;;;;;;21.67;8.80;;;;;;;1.19;91.18;101372.00;5078726;28;20027;-67
2022/01/10 03:38:35;;;;;;;27.02;9.63;;;;;;;1.08;91.29;101370.22;5096878;28;20032;-68
2022/01/10 03:41:00;;;;;;;21.80;9.32;;;;;;;1.25;91.87;101374.09;5096881;28;20039;-68
2022/01/10 03:43:26;;;;;;;24.55;9.68;;;;;;;1.29;91.75;101375.47;5097090;28;20478;-68
2022/01/10 03:45:51;;;;;;;24.75;9.40;;;;;;;1.22;91.01;101372.56;5078577;28;20466;-67
2022/01/10 03:48:17;;;;;;;21.33;9.48;;;;;;;1.21;91.64;101383.69;5096765;28;20024;-67
2022/01/10 03:50:42;;;;;;;20.98;9.20;;;;;;;1.23;91.02;101391.19;5096796;28;20078;-67
2022/01/10 03:53:07;;;;;;;20.38;9.43;;;;;;;1.19;91.45;101380.44;5096801;28;20032;-67
2022/01/10 03:55:33;;;;;;;18.13;8.52;;;;;;;1.33;91.60;101394.72;5096499;28;20448;-67
2022/01/10 03:57:58;;;;;;;24.42;9.70;;;;;;;1.54;91.56;101395.69;5078628;28;20035;-67
2022/01/10 04:00:24;;;;;;;28.17;10.40;;;;;;;1.48;91.60;101400.44;5096595;28;20099;-66
2022/01/10 04:02:57;;;;;;;25.80;10.63;;;;;;;1.40;91.42;101389.97;5096522;28;20081;-67
2022/01/10 04:05:23;;;;;;;24.05;10.15;;;;;;;1.43;92.22;101394.84;5096927;28;20142;-67
2022/01/10 04:07:48;;;;;;;24.98;10.98;;;;;;;1.52;92.41;101404.34;5096447;28;20051;-66
2022/01/10 04:10:14;;;;;;;18.65;10.38;;;;;;;1.63;91.90;101406.94;5078072;28;20111;-67
2022/01/10 04:12:39;;;;;;;26.55;10.75;;;;;;;1.74;91.88;101417.16;5078241;28;20023;-67
2022/01/10 04:15:05;;;;;;;22.45;10.35;;;;;;;1.78;91.87;101410.91;5096090;28;20024;-67
2022/01/10 04:17:30;;;;;;;24.20;9.98;;;;;;;1.78;91.75;101420.28;5096197;28;20122;-67
2022/01/10 04:19:55;;;;;;;24.40;10.25;;;;;;;1.96;91.49;101413.00;5096229;28;20020;-67
2022/01/10 04:22:21;;;;;;;26.25;10.73;;;;;;;2.01;90.94;101416.00;5077981;28;20035;-67
2022/01/10 04:24:47;;;;;;;22.48;10.52;;;;;;;1.76;91.26;101425.50;5096264;28;20103;-66
2022/01/10 04:27:12;;;;;;;24.23;11.23;;;;;;;1.68;92.09;101425.25;5095961;28;20032;-66
2022/01/10 04:29:38;;;;;;;22.33;11.10;;;;;;;1.69;92.15;101438.78;5077728;28;20013;-67
2022/01/10 04:32:04;;;;;;;22.42;10.80;;;;;;;1.86;92.26;101450.28;5077717;28;20115;-66
2022/01/10 04:34:29;;;;;;;28.38;10.80;;;;;;;1.83;91.58;101441.13;5077670;28;20078;-67
2022/01/10 04:36:55;;;;;;;33.80;10.90;;;;;;;1.87;91.96;101449.34;5077608;28;20115;-67
2022/01/10 04:39:20;;;;;;;22.48;10.60;;;;;;;1.80;91.66;101454.09;5077604;28;20077;-67
2022/01/10 04:41:45;;;;;;;26.75;11.60;;;;;;;1.93;91.43;101459.13;5077555;28;20020;-67
2022/01/10 04:44:11;;;;;;;24.00;11.65;;;;;;;1.87;92.15;101457.00;5077493;28;20058;-67
2022/01/10 04:46:36;;;;;;;23.65;10.70;;;;;;;1.83;92.04;101470.91;5077424;28;20024;-67
2022/01/10 04:49:03;;;;;;;23.05;10.90;;;;;;;1.88;92.17;101469.66;5095631;28;20031;-67
2022/01/10 04:51:29;;;;;;;24.55;10.77;;;;;;;2.07;92.25;101475.91;5077466;28;20039;-66
2022/01/10 04:53:55;;;;;;;24.30;10.48;;;;;;;2.01;92.13;101479.75;5095306;28;20016;-66
2022/01/10 04:56:21;;;;;;;32.03;12.68;;;;;;;1.98;92.45;101492.72;5077173;28;20446;-66
2022/01/10 04:58:48;;;;;;;26.88;10.98;;;;;;;2.12;91.97;101495.06;5095273;28;20027;-68
2022/01/10 05:01:15;;;;;;;20.27;10.77;;;;;;;2.08;91.83;101495.41;5095268;28;20028;-67
2022/01/10 05:03:40;;;;;;;25.92;10.65;;;;;;;2.04;92.38;101505.00;5095165;28;20028;-67
2022/01/10 05:06:06;;;;;;;24.55;11.07;;;;;;;2.12;92.58;101518.00;5095234;28;20031;-67
2022/01/10 05:08:32;;;;;;;30.27;11.18;;;;;;;2.19;92.32;101506.44;5095420;28;20077;-68
2022/01/10 05:10:57;;;;;;;32.00;11.50;;;;;;;2.13;92.33;101529.84;5077033;28;20032;-67
2022/01/10 05:13:23;;;;;;;24.70;10.27;;;;;;;2.19;92.20;101541.34;5095132;28;20535;-67
2022/01/10 05:15:50;;;;;;;19.55;10.25;;;;;;;2.17;92.56;101533.78;5094979;28;20046;-67
2022/01/10 05:18:18;;;;;;;23.75;11.85;;;;;;;2.26;91.84;101530.53;5094883;28;20020;-68
2022/01/10 05:20:43;;;;;;;29.02;11.27;;;;;;;2.29;91.59;101531.25;5094974;28;20081;-67
2022/01/10 05:23:08;;;;;;;21.60;10.98;;;;;;;2.03;92.01;101511.03;5094778;28;20099;-67
2022/01/10 05:25:36;;;;;;;23.38;10.70;;;;;;;2.35;92.08;101552.00;5094247;28;20047;-67
2022/01/10 05:28:10;;;;;;;26.63;11.23;;;;;;;2.26;91.56;101563.69;5094776;28;20062;-67
2022/01/10 05:30:37;;;;;;;21.80;11.15;;;;;;;2.28;91.85;101558.50;5094744;28;20024;-67
2022/01/10 05:33:03;;;;;;;22.17;11.30;;;;;;;2.30;91.53;101564.28;5076569;28;20031;-67
2022/01/10 05:35:28;;;;;;;26.08;10.93;;;;;;;2.30;91.97;101566.81;5076424;28;20020;-67
2022/01/10 05:37:53;;;;;;;21.15;11.15;;;;;;;2.30;91.45;101566.81;5094832;28;20059;-67
2022/01/10 05:40:19;;;;;;;20.95;10.85;;;;;;;2.33;92.15;101589.59;5076430;28;20364;-67
2022/01/10 05:42:45;;;;;;;20.15;11.02;;;;;;;2.42;91.89;101583.78;5094472;28;20027;-67
2022/01/10 05:45:10;;;;;;;24.52;11.65;;;;;;;2.41;91.24;101584.69;5094484;28;20032;-67
2022/01/10 05:47:40;;;;;;;26.05;11.52;;;;;;;2.57;91.45;101576.72;5094731;28;20036;-67
2022/01/10 05:50:07;;;;;;;23.77;11.68;;;;;;;2.39;91.24;101580.66;5076268;28;20082;-66
2022/01/10 05:52:32;;;;;;;23.02;11.98;;;;;;;2.42;91.35;101577.88;5094276;28;20028;-67
2022/01/10 05:54:58;;;;;;;27.40;12.13;;;;;;;2.47;91.22;101589.38;5094293;28;20090;-67
2022/01/10 05:57:23;;;;;;;28.30;12.57;;;;;;;2.50;91.29;101595.97;5094118;28;20047;-67
2022/01/10 05:59:48;;;;;;;23.10;11.77;;;;;;;2.52;91.27;101601.78;5076015;28;20024;-66
2022/01/10 06:02:14;;;;;;;24.17;11.48;;;;;;;2.49;92.14;101607.09;5076090;28;20020;-66
2022/01/10 06:04:39;;;;;;;32.42;13.60;;;;;;;2.58;91.54;101598.75;5094129;28;20023;-66
2022/01/10 06:07:04;;;;;;;22.80;12.05;;;;;;;2.62;91.93;101605.28;5094117;28;20055;-66
2022/01/10 06:09:29;;;;;;;26.63;11.80;;;;;;;2.64;91.34;101617.91;5075851;28;20541;-68
2022/01/10 06:11:55;;;;;;;26.77;12.25;;;;;;;2.84;90.04;101613.84;5094056;28;20516;-66
2022/01/10 06:14:20;;;;;;;21.77;11.80;;;;;;;2.72;90.51;101613.03;5094552;28;20051;-67
2022/01/10 06:16:45;;;;;;;24.33;12.27;;;;;;;2.51;91.66;101632.53;5094473;28;20024;-67
2022/01/10 06:19:11;;;;;;;30.38;13.48;;;;;;;2.57;92.39;101632.88;5093842;28;20024;-67
2022/01/10 06:21:36;;;;;;;28.65;13.73;;;;;;;2.56;91.44;101632.97;5094090;28;20024;-67
2022/01/10 06:24:01;;;;;;;29.05;12.60;;;;;;;2.66;91.02;101650.03;5075583;28;20020;-67
2022/01/10 06:26:27;;;;;;;23.65;12.45;;;;;;;2.63;90.87;101652.81;5094090;28;20028;-67
2022/01/10 06:28:52;;;;;;;26.42;12.88;;;;;;;2.63;90.75;101621.41;5077627;28;20467;-69
2022/01/10 06:31:17;;;;;;;30.25;12.27;;;;;;;2.82;90.55;101651.44;5079428;28;20027;-69
2022/01/10 06:33:43;;;;;;;24.65;12.85;;;;;;;2.56;90.63;101635.53;5079156;28;20027;-67
2022/01/10 06:36:09;;;;;;;26.25;12.73;;;;;;;2.65;90.83;101653.53;5079126;28;20488;-68
2022/01/10 06:38:35;;;;;;;29.88;12.98;;;;;;;2.71;90.91;101686.25;5095062;28;20020;-68
2022/01/10 06:41:00;;;;;;;25.33;12.07;;;;;;;2.72;91.81;101684.50;5093566;28;20057;-67
2022/01/10 06:43:26;;;;;;;21.42;12.45;;;;;;;2.81;91.88;101688.13;5093496;28;20058;-66
2022/01/10 06:45:51;;;;;;;26.98;12.07;;;;;;;2.86;90.68;101688.59;5093491;28;20020;-66
2022/01/10 06:48:16;;;;;;;30.90;12.70;;;;;;;2.78;90.14;101689.16;5093532;28;20020;-67
2022/01/10 06:50:46;;;;;;;29.48;13.90;;;;;;;2.78;90.64;101696.81;5093503;28;20026;-66
2022/01/10 06:53:12;;;;;;;22.67;12.48;;;;;;;2.71;90.50;101711.78;5093687;28;20050;-66
2022/01/10 06:55:38;;;;;;;28.30;12.95;;;;;;;2.74;90.92;101710.75;5093266;28;20088;-66
2022/01/10 06:58:03;;;;;;;27.08;12.82;;;;;;;2.61;91.21;101713.38;5093556;28;20475;-66
2022/01/10 07:00:28;;;;;;;28.63;13.05;;;;;;;2.81;91.00;101718.75;5075259;28;20028;-67
2022/01/10 07:02:54;;;;;;;31.02;12.57;;;;;;;2.84;90.50;101721.09;5093350;28;20027;-67
2022/01/10 07:05:19;;;;;;;27.65;13.00;;;;;;;2.81;90.81;101737.44;5093337;28;20024;-67
2022/01/10 07:07:45;;;;;;;24.15;13.18;;;;;;;2.80;90.73;101742.66;5093282;28;20297;-67
2022/01/10 07:10:10;;;;;;;26.45;12.45;;;;;;;2.74;91.22;101745.69;5093219;28;20063;-67
2022/01/10 07:12:36;;;;;;;28.92;12.43;;;;;;;2.79;91.18;101758.91;5093260;28;20024;-67
2022/01/10 07:15:02;;;;;;;29.00;12.60;;;;;;;2.94;90.53;101757.78;5075064;28;20089;-67
2022/01/10 07:17:27;;;;;;;28.27;12.25;;;;;;;2.88;90.20;101760.81;5093202;28;20024;-66
2022/01/10 07:19:53;;;;;;;25.33;12.80;;;;;;;2.84;89.71;101774.69;5093221;28;20032;-66
2022/01/10 07:22:18;;;;;;;25.52;12.35;;;;;;;2.82;90.39;101785.03;5075025;28;20391;-67
2022/01/10 07:24:43;;;;;;;32.03;13.18;;;;;;;2.81;90.50;101782.56;5093408;28;20016;-67
2022/01/10 07:27:09;;;;;;;30.98;13.07;;;;;;;2.87;90.56;101787.22;5075052;28;20475;-68
2022/01/10 07:29:34;;;;;;;20.50;11.90;;;;;;;2.89;89.58;101782.84;5093182;28;20030;-67
2022/01/10 07:31:59;;;;;;;25.55;11.80;;;;;;;2.85;89.77;101794.19;5075064;28;20051;-67
2022/01/10 07:34:25;;;;;;;21.77;12.43;;;;;;;2.52;90.92;101802.53;5093321;28;20030;-66
2022/01/10 07:36:50;;;;;;;25.95;12.48;;;;;;;2.42;90.84;101802.41;5093633;28;20078;-67
2022/01/10 07:39:15;;;;;;;26.50;12.77;;;;;;;2.25;92.16;101804.38;5074787;28;20031;-67
2022/01/10 07:41:41;;;;;;;25.00;13.10;;;;;;;2.27;92.40;101809.38;5074933;28;20050;-67
2022/01/10 07:44:06;;;;;;;26.92;13.13;;;;;;;2.40;91.93;101812.69;5092975;28;20032;-67
2022/01/10 07:46:32;;;;;;;31.23;13.05;;;;;;;2.53;91.24;101829.69;5074681;28;20078;-67
2022/01/10 07:48:57;;;;;;;25.00;13.35;;;;;;;2.62;90.92;101834.97;5094988;28;20024;-67
2022/01/10 07:51:24;;;;;;;26.13;12.18;;;;;;;2.55;90.95;101836.31;5097985;28;20138;-66
2022/01/10 07:53:49;;;;;;;28.95;13.18;;;;;;;2.49;91.25;101844.41;5078883;28;20042;-68
2022/01/10 07:56:15;;;;;;;24.15;12.30;;;;;;;2.60;91.35;101856.41;5097241;28;20044;-66
2022/01/10 07:58:41;;;;;;;28.23;12.45;;;;;;;2.54;91.19;101852.56;5078882;28;20031;-67
2022/01/10 08:01:06;;;;;;;24.15;12.75;;;;;;;2.55;91.34;101855.91;5078286;28;20103;-66
2022/01/10 08:03:32;;;;;;;27.80;12.65;;;;;;;2.71;90.51;101864.94;5096633;28;20027;-67
2022/01/10 08:05:57;;;;;;;31.00;12.60;;;;;;;2.80;90.89;101867.75;5096367;28;20059;-66
2022/01/10 08:08:23;;;;;;;26.70;12.73;;;;;;;2.83;89.78;101880.31;5078175;28;20047;-66
2022/01/10 08:10:48;;;;;;;28.30;13.05;;;;;;;2.86;89.73;101885.19;5096701;28;20031;-67
2022/01/10 08:13:14;;;;;;;23.17;12.88;;;;;;;2.94;89.93;101876.06;5096240;28;20035;-67
2022/01/10 08:15:39;;;;;;;21.63;11.85;;;;;;;2.84;89.70;101887.03;5096182;28;20091;-67
2022/01/10 08:18:06;;;;;;;21.88;13.15;;;;;;;2.80;90.52;101891.53;5096724;28;20024;-67
2022/01/10 08:20:31;;;;;;;26.77;13.27;;;;;;;2.82;90.31;101893.97;5096309;28;20521;-66
2022/01/10 08:22:57;;;;;;;30.83;13.02;;;;;;;2.79;90.18;101897.59;5094579;28;20048;-68
2022/01/10 08:25:22;;;;;;;28.02;13.32;;;;;;;2.59;91.03;101905.81;5095292;28;20027;-67
2022/01/10 08:27:47;;;;;;;28.27;13.50;;;;;;;2.81;91.07;101920.44;5077971;28;20114;-67
2022/01/10 08:30:13;;;;;;;26.98;12.90;;;;;;;2.86;90.35;101933.69;5095973;28;20026;-66
2022/01/10 08:32:38;;;;;;;31.13;13.75;;;;;;;2.98;89.92;101932.81;5095838;28;20032;-66
2022/01/10 08:35:05;;;;;;;22.92;13.38;;;;;;;2.96;90.05;101932.09;5077853;28;20024;-67
2022/01/10 08:37:31;;;;;;;32.70;13.30;;;;;;;3.11;89.69;101943.81;5077872;28;20028;-67
2022/01/10 08:39:56;;;;;;;29.65;13.65;;;;;;;3.19;89.09;101938.13;5095349;28;20435;-68
2022/01/10 08:42:23;;;;;;;23.60;13.00;;;;;;;3.24;88.71;101938.63;5093664;28;20082;-66
2022/01/10 08:44:49;;;;;;;27.35;12.95;;;;;;;3.39;88.34;101944.34;5076428;28;20024;-67
2022/01/10 08:47:15;;;;;;;29.95;13.00;;;;;;;3.36;88.17;101950.50;5095828;28;20109;-68
2022/01/10 08:49:41;;;;;;;29.27;13.27;;;;;;;3.28;87.92;101941.75;5075614;28;20430;-67
2022/01/10 08:52:07;;;;;;;29.23;13.52;;;;;;;3.39;88.71;101952.88;5075313;28;20035;-67
2022/01/10 08:54:33;;;;;;;28.60;12.98;;;;;;;3.30;87.65;101962.91;5093197;28;20051;-67
2022/01/10 08:56:59;;;;;;;27.25;12.95;;;;;;;3.43;88.07;101960.31;5094407;28;20063;-67
2022/01/10 08:59:26;;;;;;;30.52;13.00;;;;;;;3.57;87.72;101971.16;5076069;28;20443;-66
2022/01/10 09:01:52;;;;;;;27.00;12.90;;;;;;;3.35;87.62;101971.88;5093985;28;20051;-66
2022/01/10 09:04:17;;;;;;;26.20;12.80;;;;;;;3.20;87.93;101965.31;5094486;28;20062;-66
2022/01/10 09:06:47;;;;;;;31.50;12.63;;;;;;;3.45;88.13;101977.13;5093296;28;20028;-67
2022/01/10 09:09:14;;;;;;;27.98;12.60;;;;;;;3.50;86.96;101971.69;5058388;28;20393;-67
2022/01/10 09:11:40;;;;;;;32.42;13.05;;;;;;;3.41;87.27;101973.19;5074953;28;20032;-66
2022/01/10 09:14:06;;;;;;;27.27;13.25;;;;;;;3.58;87.51;101980.44;5074823;28;20062;-66
2022/01/10 09:16:32;;;;;;;29.85;12.93;;;;;;;3.85;86.66;101971.66;5093028;28;20028;-66
2022/01/10 09:18:57;;;;;;;27.38;12.43;;;;;;;3.92;85.90;101987.38;5093284;28;20375;-67
2022/01/10 09:21:23;;;;;;;32.13;13.35;;;;;;;4.18;85.49;101980.31;5093772;28;20024;-67
2022/01/10 09:23:48;;;;;;;24.60;12.38;;;;;;;4.16;84.37;101987.28;5093479;28;20161;-67
2022/01/10 09:26:14;;;;;;;26.83;12.90;;;;;;;3.92;84.81;101952.41;5094934;28;20023;-66
2022/01/10 09:28:39;;;;;;;25.60;12.38;;;;;;;3.91;86.53;101983.19;5094743;28;20047;-66
2022/01/10 09:31:04;;;;;;;30.55;12.80;;;;;;;3.87;85.71;101986.91;5094832;28;20102;-67
2022/01/10 09:33:30;;;;;;;26.60;12.95;;;;;;;3.75;86.21;101988.63;5094939;28;20050;-67
2022/01/10 09:35:55;;;;;;;37.35;13.48;;;;;;;3.71;87.01;101998.28;5076440;28;20024;-66
2022/01/10 09:38:20;;;;;;;33.05;13.80;;;;;;;3.81;86.75;102013.75;5094704;28;20028;-66
2022/01/10 09:40:46;;;;;;;29.63;13.60;;;;;;;3.86;86.50;102011.66;5076430;28;20328;-66
2022/01/10 09:43:11;;;;;;;30.73;13.75;;;;;;;3.86;86.46;102021.09;5094281;28;20111;-66
2022/01/10 09:45:38;;;;;;;30.23;14.35;;;;;;;3.70;86.61;102029.06;5075126;28;20024;-66
2022/01/10 09:48:04;;;;;;;30.20;13.90;;;;;;;4.05;85.96;102040.06;5093419;28;20393;-67
2022/01/10 09:50:29;;;;;;;28.65;12.95;;;;;;;4.13;85.09;102051.47;5093335;28;20103;-67
2022/01/10 09:52:54;;;;;;;28.35;13.82;;;;;;;4.35;83.89;102051.53;5093204;28;20457;-65
2022/01/10 09:55:20;;;;;;;27.50;13.50;;;;;;;3.86;84.59;102032.13;5093142;28;20108;-67
2022/01/10 09:57:45;;;;;;;32.55;13.90;;;;;;;4.35;84.06;102066.88;5075129;28;20027;-67
2022/01/10 10:00:11;;;;;;;31.75;13.70;;;;;;;4.21;84.67;102069.66;5094194;28;20036;-67
2022/01/10 10:02:38;;;;;;;21.17;13.02;;;;;;;4.61;84.00;102087.97;5094573;28;20078;-66
2022/01/10 10:05:08;;;;;;;28.25;14.32;;;;;;;4.40;82.62;102054.56;5094679;28;20024;-66
2022/01/10 10:07:37;;;;;;;23.08;12.98;;;;;;;4.62;82.31;102088.78;5076577;28;20368;-67
2022/01/10 10:10:07;;;;;;;35.38;12.93;;;;;;;4.98;81.75;102093.66;5075949;28;20046;-66
2022/01/10 10:12:33;;;;;;;29.52;13.32;;;;;;;4.98;82.38;102103.09;5075726;28;20020;-66
2022/01/10 10:15:00;;;;;;;29.95;13.10;;;;;;;5.00;81.88;102110.66;5093970;28;20074;-66
2022/01/10 10:17:28;;;;;;;27.80;13.88;;;;;;;5.18;81.06;102110.06;5076400;28;20028;-66
2022/01/10 10:19:53;;;;;;;29.98;14.23;;;;;;;5.15;80.95;102120.56;5075656;28;20390;-67
2022/01/10 10:22:20;;;;;;;33.28;13.10;;;;;;;5.08;80.21;102113.44;5075983;28;20031;-67
2022/01/10 10:24:48;;;;;;;31.45;13.35;;;;;;;5.10;81.68;102126.97;5093824;28;20379;-67
2022/01/10 10:27:16;;;;;;;29.40;13.40;;;;;;;5.42;80.04;102121.91;5075680;28;20028;-66
2022/01/10 10:29:43;;;;;;;23.13;13.18;;;;;;;5.69;79.53;102124.03;5075646;28;20019;-67
2022/01/10 10:32:09;;;;;;;29.15;12.70;;;;;;;6.40;76.88;102132.00;5076164;28;20486;-66
2022/01/10 10:34:35;;;;;;;26.65;12.32;;;;;;;7.10;74.42;102140.69;5093555;28;20555;-67
2022/01/10 10:37:13;;;;;;;28.48;12.68;;;;;;;7.00;73.77;102132.16;5075587;28;20177;-67
2022/01/10 10:39:41;;;;;;;25.77;13.07;;;;;;;6.30;76.46;102134.53;5075449;28;20047;-68
2022/01/10 10:42:09;;;;;;;26.92;12.98;;;;;;;5.88;77.70;102129.31;5093463;28;20055;-66
2022/01/10 10:44:34;;;;;;;27.85;12.60;;;;;;;5.83;78.21;102138.31;5093581;28;20023;-67
2022/01/10 10:47:00;;;;;;;27.67;13.32;;;;;;;8.97;69.58;102131.75;5093549;28;20379;-67
2022/01/10 10:49:44;;;;;;;25.00;12.20;;;;;;;12.75;55.55;102137.59;5093575;28;20546;-68
2022/01/10 10:52:11;;;;;;;28.33;11.20;;;;;;;12.70;54.23;102135.50;5093874;28;20024;-68
2022/01/10 10:54:37;;;;;;;23.90;11.30;;;;;;;13.24;52.43;102142.56;5093448;28;20081;-69
2022/01/10 10:57:05;;;;;;;21.65;11.10;;;;;;;14.28;49.48;102145.50;5075197;28;20036;-67
2022/01/10 10:59:35;;;;;;;25.02;11.38;;;;;;;14.22;49.46;102154.81;5093332;28;20032;-68
2022/01/10 11:02:03;;;;;;;23.25;11.15;;;;;;;14.10;49.07;102149.25;5075620;28;20054;-68
2022/01/10 11:04:30;;;;;;;23.35;10.50;;;;;;;12.56;52.75;102155.13;5093295;28;20028;-68
2022/01/10 11:06:56;;;;;;;24.95;10.63;;;;;;;13.06;52.54;102169.56;5093348;28;20027;-68
2022/01/10 11:09:22;;;;;;;19.85;10.35;;;;;;;12.85;52.38;102169.31;5093255;28;20070;-67
2022/01/10 11:11:47;;;;;;;23.45;10.85;;;;;;;10.94;58.03;102179.91;5093280;28;20024;-69
2022/01/10 11:14:14;;;;;;;21.95;11.55;;;;;;;8.48;66.57;102177.50;5093780;28;20024;-67
2022/01/10 11:16:45;;;;;;;22.45;12.00;;;;;;;7.80;70.85;102176.72;5093261;28;20523;-67
2022/01/10 11:19:22;;;;;;;23.88;12.57;;;;;;;8.16;69.92;102174.41;5093243;28;20024;-67
2022/01/10 11:22:06;;;;;;;31.65;12.77;;;;;;;8.22;70.53;102189.31;5092913;28;20024;-67
2022/01/10 11:24:43;;;;;;;28.33;12.00;;;;;;;7.73;71.86;102186.72;5096618;28;20024;-67
2022/01/10 11:27:32;;;;;;;26.52;12.65;;;;;;;7.15;73.93;102189.97;5097260;28;20028;-67
2022/01/10 11:29:58;;;;;;;27.77;13.07;;;;;;;7.32;74.24;102187.72;5079000;28;20024;-66